This is the latest recevied weather packets stored in our database for station/object K5KVN. If no packets are shown the sender has not sent any weather packets the latest 10 day(s).
| Time | Temp. | Humidity | Pressure | Rain* | Wind** | Luminosity | Snow |
|---|---|---|---|---|---|---|---|
| 1777867097 | 18.89° C | 63% | 1013.8 hPa | 0 mm | - | - | - |
| 1777866497 | 18.89° C | 63% | 1013.7 hPa | 0 mm | - | - | - |
| 1777865956 | 19.44° C | 62% | 1013.9 hPa | 0 mm | - | - | - |
| 1777865296 | 19.44° C | 62% | 1013.7 hPa | 0 mm | - | - | - |
| 1777864695 | 19.44° C | 62% | 1013.8 hPa | 0 mm | - | - | - |
| 1777864095 | 19.44° C | 62% | 1013.8 hPa | 0 mm | - | - | - |
| 1777863492 | 19.44° C | 61% | 1013.8 hPa | 0 mm | - | - | - |
| 1777862951 | 19.44° C | 61% | 1013.7 hPa | 0 mm | - | - | - |
| 1777862352 | 20° C | 60% | 1013.6 hPa | 0 mm | - | - | - |
| 1777861691 | 19.44° C | 62% | 1013.5 hPa | 0 mm | - | - | - |
| 1777861090 | 19.44° C | 62% | 1013.5 hPa | 0 mm | - | - | - |
| 1777860490 | 20° C | 62% | 1013.3 hPa | 0 mm | - | - | - |
| 1777859889 | 20° C | 61% | 1013.4 hPa | 0 mm | - | - | - |
| 1777859291 | 20° C | 61% | 1013.3 hPa | 0 mm | - | - | - |
| 1777858689 | 20.56° C | 60% | 1013.2 hPa | 0 mm | - | - | - |
| 1777858089 | 20.56° C | 60% | 1013.3 hPa | 0 mm | - | - | - |
| 1777857485 | 21.11° C | 58% | 1013.3 hPa | 0 mm | - | - | - |
| 1777856887 | 21.11° C | 56% | 1013.2 hPa | 0 mm | - | - | - |
| 1777856347 | 21.67° C | 56% | 1013.2 hPa | 0 mm | - | - | - |
| 1777855687 | 22.22° C | 54% | 1013.1 hPa | 0 mm | - | - | - |
| 1777855086 | 22.22° C | 55% | 1013.3 hPa | 0 mm | - | - | - |
| 1777854486 | 22.78° C | 52% | 1013.2 hPa | 0 mm | - | - | - |
| 1777853887 | 23.33° C | 49% | 1013.4 hPa | 0 mm | - | - | - |
| 1777853345 | 23.89° C | 48% | 1013.5 hPa | 0 mm | - | - | - |
| 1777852685 | 23.89° C | 46% | 1013.6 hPa | 0 mm | - | - | - |
* Rain latest hour (hover to see other rain measurements)
** Current wind speed in m/s (hover to see current wind gust speed)